sensor_id;sensor_type;location;lat;lon;timestamp;P1;durP1;ratioP1;P2;durP2;ratioP2
15673;SDS011;7937;48.090;16.212;2022-12-29T00:01:36;3.03;;;1.90;;
15673;SDS011;7937;48.090;16.212;2022-12-29T00:04:38;3.80;;;2.10;;
15673;SDS011;7937;48.090;16.212;2022-12-29T00:07:40;5.27;;;2.40;;
15673;SDS011;7937;48.090;16.212;2022-12-29T00:10:43;5.90;;;1.97;;
15673;SDS011;7937;48.090;16.212;2022-12-29T00:13:45;4.03;;;1.60;;
15673;SDS011;7937;48.090;16.212;2022-12-29T00:17:06;4.53;;;2.07;;
15673;SDS011;7937;48.090;16.212;2022-12-29T00:20:08;4.87;;;2.10;;
15673;SDS011;7937;48.090;16.212;2022-12-29T00:23:29;5.90;;;2.50;;
15673;SDS011;7937;48.090;16.212;2022-12-29T00:30:22;4.60;;;2.70;;
15673;SDS011;7937;48.090;16.212;2022-12-29T00:33:45;3.30;;;2.00;;
15673;SDS011;7937;48.090;16.212;2022-12-29T00:37:06;3.33;;;1.93;;
15673;SDS011;7937;48.090;16.212;2022-12-29T00:40:08;2.93;;;2.03;;
15673;SDS011;7937;48.090;16.212;2022-12-29T00:43:28;2.63;;;1.60;;
15673;SDS011;7937;48.090;16.212;2022-12-29T00:46:49;5.10;;;3.33;;
15673;SDS011;7937;48.090;16.212;2022-12-29T00:49:51;2.97;;;2.27;;
15673;SDS011;7937;48.090;16.212;2022-12-29T00:52:53;3.13;;;1.90;;
15673;SDS011;7937;48.090;16.212;2022-12-29T00:55:55;2.30;;;1.80;;
15673;SDS011;7937;48.090;16.212;2022-12-29T00:59:03;2.13;;;1.53;;
15673;SDS011;7937;48.090;16.212;2022-12-29T01:02:08;2.80;;;1.60;;
15673;SDS011;7937;48.090;16.212;2022-12-29T01:05:11;2.43;;;1.63;;
15673;SDS011;7937;48.090;16.212;2022-12-29T01:08:13;3.00;;;1.73;;
15673;SDS011;7937;48.090;16.212;2022-12-29T01:11:15;3.80;;;1.50;;
15673;SDS011;7937;48.090;16.212;2022-12-29T01:14:18;1.97;;;1.37;;
15673;SDS011;7937;48.090;16.212;2022-12-29T01:17:21;2.07;;;1.33;;
15673;SDS011;7937;48.090;16.212;2022-12-29T01:20:23;1.67;;;1.50;;
15673;SDS011;7937;48.090;16.212;2022-12-29T01:23:25;3.30;;;1.47;;
15673;SDS011;7937;48.090;16.212;2022-12-29T01:26:27;2.83;;;1.50;;
15673;SDS011;7937;48.090;16.212;2022-12-29T01:29:29;1.67;;;1.30;;
15673;SDS011;7937;48.090;16.212;2022-12-29T01:32:31;1.70;;;1.40;;
15673;SDS011;7937;48.090;16.212;2022-12-29T01:35:33;2.23;;;1.60;;
15673;SDS011;7937;48.090;16.212;2022-12-29T01:38:36;1.67;;;1.30;;
15673;SDS011;7937;48.090;16.212;2022-12-29T01:41:39;1.80;;;1.33;;
15673;SDS011;7937;48.090;16.212;2022-12-29T01:47:53;1.27;;;1.07;;
15673;SDS011;7937;48.090;16.212;2022-12-29T01:50:59;1.63;;;1.40;;
15673;SDS011;7937;48.090;16.212;2022-12-29T01:54:01;1.50;;;1.20;;
15673;SDS011;7937;48.090;16.212;2022-12-29T01:57:50;2.30;;;1.20;;
15673;SDS011;7937;48.090;16.212;2022-12-29T02:00:38;2.10;;;1.10;;
15673;SDS011;7937;48.090;16.212;2022-12-29T02:03:41;4.20;;;1.20;;
15673;SDS011;7937;48.090;16.212;2022-12-29T02:07:05;1.90;;;1.30;;
15673;SDS011;7937;48.090;16.212;2022-12-29T02:10:09;2.93;;;1.73;;
15673;SDS011;7937;48.090;16.212;2022-12-29T02:13:11;3.80;;;1.90;;
15673;SDS011;7937;48.090;16.212;2022-12-29T02:37:28;2.37;;;1.40;;
15673;SDS011;7937;48.090;16.212;2022-12-29T02:40:58;2.00;;;1.60;;
15673;SDS011;7937;48.090;16.212;2022-12-29T02:44:17;1.77;;;1.53;;
15673;SDS011;7937;48.090;16.212;2022-12-29T02:48:07;2.10;;;1.43;;
15673;SDS011;7937;48.090;16.212;2022-12-29T02:54:09;3.07;;;2.30;;
15673;SDS011;7937;48.090;16.212;2022-12-29T02:57:32;2.40;;;1.83;;
15673;SDS011;7937;48.090;16.212;2022-12-29T03:00:41;2.90;;;2.00;;
15673;SDS011;7937;48.090;16.212;2022-12-29T03:07:43;2.33;;;1.70;;
15673;SDS011;7937;48.090;16.212;2022-12-29T03:11:02;2.17;;;1.93;;
15673;SDS011;7937;48.090;16.212;2022-12-29T03:14:24;5.77;;;2.90;;
15673;SDS011;7937;48.090;16.212;2022-12-29T03:17:57;2.80;;;2.17;;
15673;SDS011;7937;48.090;16.212;2022-12-29T03:24:58;5.03;;;3.40;;
15673;SDS011;7937;48.090;16.212;2022-12-29T03:28:13;7.33;;;4.07;;
15673;SDS011;7937;48.090;16.212;2022-12-29T03:31:21;3.87;;;3.00;;
15673;SDS011;7937;48.090;16.212;2022-12-29T03:34:26;4.77;;;3.03;;
15673;SDS011;7937;48.090;16.212;2022-12-29T03:37:31;5.03;;;3.20;;
15673;SDS011;7937;48.090;16.212;2022-12-29T03:40:39;4.63;;;2.77;;
15673;SDS011;7937;48.090;16.212;2022-12-29T03:43:45;4.53;;;2.80;;
15673;SDS011;7937;48.090;16.212;2022-12-29T03:46:48;3.93;;;2.67;;
15673;SDS011;7937;48.090;16.212;2022-12-29T03:49:50;4.43;;;3.10;;
15673;SDS011;7937;48.090;16.212;2022-12-29T03:52:53;6.50;;;3.40;;
15673;SDS011;7937;48.090;16.212;2022-12-29T03:55:55;4.57;;;2.90;;
15673;SDS011;7937;48.090;16.212;2022-12-29T03:58:57;3.97;;;3.23;;
15673;SDS011;7937;48.090;16.212;2022-12-29T04:02:05;5.10;;;3.20;;
15673;SDS011;7937;48.090;16.212;2022-12-29T04:05:08;3.83;;;2.73;;
15673;SDS011;7937;48.090;16.212;2022-12-29T04:08:11;7.00;;;3.30;;
15673;SDS011;7937;48.090;16.212;2022-12-29T04:11:13;4.13;;;2.93;;
15673;SDS011;7937;48.090;16.212;2022-12-29T04:14:15;5.07;;;2.93;;
15673;SDS011;7937;48.090;16.212;2022-12-29T04:17:19;4.97;;;2.73;;
15673;SDS011;7937;48.090;16.212;2022-12-29T04:20:24;4.10;;;2.87;;
15673;SDS011;7937;48.090;16.212;2022-12-29T04:23:44;4.23;;;2.70;;
15673;SDS011;7937;48.090;16.212;2022-12-29T04:26:47;3.00;;;2.43;;
15673;SDS011;7937;48.090;16.212;2022-12-29T04:30:04;3.80;;;2.80;;
15673;SDS011;7937;48.090;16.212;2022-12-29T04:33:19;4.87;;;2.57;;
15673;SDS011;7937;48.090;16.212;2022-12-29T04:36:23;4.03;;;2.47;;
15673;SDS011;7937;48.090;16.212;2022-12-29T04:39:30;3.40;;;2.17;;
15673;SDS011;7937;48.090;16.212;2022-12-29T04:42:34;5.53;;;2.43;;
15673;SDS011;7937;48.090;16.212;2022-12-29T04:45:37;5.70;;;2.40;;
15673;SDS011;7937;48.090;16.212;2022-12-29T04:48:55;5.30;;;2.97;;
15673;SDS011;7937;48.090;16.212;2022-12-29T04:52:04;4.17;;;2.97;;
15673;SDS011;7937;48.090;16.212;2022-12-29T04:55:07;4.47;;;2.50;;
15673;SDS011;7937;48.090;16.212;2022-12-29T04:58:09;3.80;;;2.37;;
15673;SDS011;7937;48.090;16.212;2022-12-29T05:01:17;5.20;;;2.87;;
15673;SDS011;7937;48.090;16.212;2022-12-29T05:04:20;5.63;;;3.20;;
15673;SDS011;7937;48.090;16.212;2022-12-29T05:07:22;4.50;;;2.60;;
15673;SDS011;7937;48.090;16.212;2022-12-29T05:10:25;3.97;;;2.47;;
15673;SDS011;7937;48.090;16.212;2022-12-29T05:13:30;5.37;;;3.20;;
15673;SDS011;7937;48.090;16.212;2022-12-29T05:16:32;5.50;;;3.47;;
15673;SDS011;7937;48.090;16.212;2022-12-29T05:19:34;5.80;;;3.33;;
15673;SDS011;7937;48.090;16.212;2022-12-29T05:22:37;4.63;;;3.13;;
15673;SDS011;7937;48.090;16.212;2022-12-29T05:25:40;4.10;;;3.63;;
15673;SDS011;7937;48.090;16.212;2022-12-29T05:28:49;6.60;;;3.80;;
15673;SDS011;7937;48.090;16.212;2022-12-29T05:31:53;5.63;;;3.87;;
15673;SDS011;7937;48.090;16.212;2022-12-29T05:34:55;5.63;;;3.47;;
15673;SDS011;7937;48.090;16.212;2022-12-29T05:37:58;4.20;;;3.10;;
15673;SDS011;7937;48.090;16.212;2022-12-29T05:41:01;5.47;;;3.47;;
15673;SDS011;7937;48.090;16.212;2022-12-29T05:44:21;6.33;;;3.70;;
15673;SDS011;7937;48.090;16.212;2022-12-29T05:47:41;5.27;;;3.47;;
15673;SDS011;7937;48.090;16.212;2022-12-29T05:50:55;5.87;;;3.80;;
15673;SDS011;7937;48.090;16.212;2022-12-29T05:54:06;4.57;;;3.47;;
15673;SDS011;7937;48.090;16.212;2022-12-29T05:57:08;4.53;;;3.53;;
15673;SDS011;7937;48.090;16.212;2022-12-29T06:00:12;7.20;;;3.70;;
15673;SDS011;7937;48.090;16.212;2022-12-29T06:03:20;5.73;;;3.73;;
15673;SDS011;7937;48.090;16.212;2022-12-29T06:06:22;7.07;;;3.60;;
15673;SDS011;7937;48.090;16.212;2022-12-29T06:09:24;7.77;;;4.20;;
15673;SDS011;7937;48.090;16.212;2022-12-29T06:12:28;7.30;;;3.53;;
15673;SDS011;7937;48.090;16.212;2022-12-29T06:15:31;7.77;;;4.47;;
15673;SDS011;7937;48.090;16.212;2022-12-29T06:18:34;6.40;;;4.17;;
15673;SDS011;7937;48.090;16.212;2022-12-29T06:21:36;7.30;;;4.40;;
15673;SDS011;7937;48.090;16.212;2022-12-29T06:24:39;6.37;;;3.80;;
15673;SDS011;7937;48.090;16.212;2022-12-29T06:27:42;5.77;;;3.87;;
15673;SDS011;7937;48.090;16.212;2022-12-29T06:30:44;6.60;;;4.33;;
15673;SDS011;7937;48.090;16.212;2022-12-29T06:33:47;6.77;;;4.67;;
15673;SDS011;7937;48.090;16.212;2022-12-29T06:36:51;5.27;;;3.83;;
15673;SDS011;7937;48.090;16.212;2022-12-29T06:39:53;6.13;;;3.70;;
15673;SDS011;7937;48.090;16.212;2022-12-29T06:42:55;5.17;;;3.70;;
15673;SDS011;7937;48.090;16.212;2022-12-29T06:46:10;5.47;;;4.20;;
15673;SDS011;7937;48.090;16.212;2022-12-29T06:49:13;6.60;;;4.30;;
15673;SDS011;7937;48.090;16.212;2022-12-29T06:52:15;6.80;;;3.63;;
15673;SDS011;7937;48.090;16.212;2022-12-29T06:55:17;5.00;;;3.60;;
15673;SDS011;7937;48.090;16.212;2022-12-29T06:58:20;5.27;;;3.60;;
15673;SDS011;7937;48.090;16.212;2022-12-29T07:01:23;4.87;;;3.63;;
15673;SDS011;7937;48.090;16.212;2022-12-29T07:04:26;5.23;;;3.60;;
15673;SDS011;7937;48.090;16.212;2022-12-29T07:07:28;7.03;;;3.80;;
15673;SDS011;7937;48.090;16.212;2022-12-29T07:10:30;6.13;;;3.67;;
15673;SDS011;7937;48.090;16.212;2022-12-29T07:13:33;10.87;;;4.53;;
15673;SDS011;7937;48.090;16.212;2022-12-29T07:16:35;5.63;;;4.17;;
15673;SDS011;7937;48.090;16.212;2022-12-29T07:19:37;5.67;;;4.13;;
15673;SDS011;7937;48.090;16.212;2022-12-29T07:22:39;6.03;;;3.60;;
15673;SDS011;7937;48.090;16.212;2022-12-29T07:25:41;8.13;;;3.97;;
15673;SDS011;7937;48.090;16.212;2022-12-29T07:28:44;4.57;;;4.03;;
15673;SDS011;7937;48.090;16.212;2022-12-29T07:31:47;6.80;;;4.33;;
15673;SDS011;7937;48.090;16.212;2022-12-29T07:34:49;7.63;;;4.20;;
15673;SDS011;7937;48.090;16.212;2022-12-29T07:37:51;5.33;;;4.23;;
15673;SDS011;7937;48.090;16.212;2022-12-29T07:40:56;7.87;;;4.80;;
15673;SDS011;7937;48.090;16.212;2022-12-29T07:43:59;5.20;;;4.07;;
15673;SDS011;7937;48.090;16.212;2022-12-29T07:47:18;5.77;;;4.03;;
15673;SDS011;7937;48.090;16.212;2022-12-29T07:50:20;6.53;;;4.50;;
15673;SDS011;7937;48.090;16.212;2022-12-29T07:53:22;5.90;;;3.73;;
15673;SDS011;7937;48.090;16.212;2022-12-29T07:56:24;7.53;;;4.57;;
15673;SDS011;7937;48.090;16.212;2022-12-29T07:59:26;6.27;;;4.60;;
15673;SDS011;7937;48.090;16.212;2022-12-29T08:02:28;6.63;;;4.27;;
15673;SDS011;7937;48.090;16.212;2022-12-29T08:05:31;5.40;;;3.27;;
15673;SDS011;7937;48.090;16.212;2022-12-29T08:08:35;7.77;;;4.47;;
15673;SDS011;7937;48.090;16.212;2022-12-29T08:11:37;6.80;;;3.93;;
15673;SDS011;7937;48.090;16.212;2022-12-29T08:14:39;8.03;;;4.23;;
15673;SDS011;7937;48.090;16.212;2022-12-29T08:17:42;6.17;;;4.20;;
15673;SDS011;7937;48.090;16.212;2022-12-29T08:20:44;6.50;;;4.40;;
15673;SDS011;7937;48.090;16.212;2022-12-29T08:23:54;8.67;;;5.10;;
15673;SDS011;7937;48.090;16.212;2022-12-29T08:26:57;6.73;;;4.23;;
15673;SDS011;7937;48.090;16.212;2022-12-29T08:30:05;7.33;;;5.07;;
15673;SDS011;7937;48.090;16.212;2022-12-29T08:33:07;6.33;;;4.73;;
15673;SDS011;7937;48.090;16.212;2022-12-29T08:36:09;6.40;;;4.63;;
15673;SDS011;7937;48.090;16.212;2022-12-29T08:39:15;7.30;;;4.70;;
15673;SDS011;7937;48.090;16.212;2022-12-29T08:42:17;8.87;;;5.60;;
15673;SDS011;7937;48.090;16.212;2022-12-29T08:45:19;7.83;;;5.47;;
15673;SDS011;7937;48.090;16.212;2022-12-29T08:48:21;9.07;;;6.57;;
15673;SDS011;7937;48.090;16.212;2022-12-29T08:51:23;11.67;;;7.53;;
15673;SDS011;7937;48.090;16.212;2022-12-29T08:54:26;13.13;;;8.60;;
15673;SDS011;7937;48.090;16.212;2022-12-29T08:57:28;13.17;;;8.70;;
15673;SDS011;7937;48.090;16.212;2022-12-29T09:00:38;13.90;;;9.87;;
15673;SDS011;7937;48.090;16.212;2022-12-29T09:03:40;13.10;;;8.70;;
15673;SDS011;7937;48.090;16.212;2022-12-29T09:07:02;12.27;;;8.33;;
15673;SDS011;7937;48.090;16.212;2022-12-29T09:10:04;13.27;;;8.83;;
15673;SDS011;7937;48.090;16.212;2022-12-29T09:13:06;12.87;;;8.80;;
15673;SDS011;7937;48.090;16.212;2022-12-29T09:16:09;13.03;;;8.30;;
15673;SDS011;7937;48.090;16.212;2022-12-29T09:19:11;12.77;;;7.77;;
15673;SDS011;7937;48.090;16.212;2022-12-29T09:22:14;12.40;;;8.83;;
15673;SDS011;7937;48.090;16.212;2022-12-29T09:25:16;12.70;;;8.40;;
15673;SDS011;7937;48.090;16.212;2022-12-29T09:28:19;11.50;;;8.23;;
15673;SDS011;7937;48.090;16.212;2022-12-29T09:31:21;13.20;;;8.57;;
15673;SDS011;7937;48.090;16.212;2022-12-29T09:34:24;11.90;;;8.43;;
15673;SDS011;7937;48.090;16.212;2022-12-29T09:37:26;15.47;;;11.03;;
15673;SDS011;7937;48.090;16.212;2022-12-29T09:40:32;15.00;;;11.27;;
15673;SDS011;7937;48.090;16.212;2022-12-29T09:46:47;15.03;;;10.10;;
15673;SDS011;7937;48.090;16.212;2022-12-29T09:49:54;13.77;;;9.10;;
15673;SDS011;7937;48.090;16.212;2022-12-29T09:53:02;11.40;;;7.50;;
15673;SDS011;7937;48.090;16.212;2022-12-29T09:56:14;10.03;;;7.27;;
15673;SDS011;7937;48.090;16.212;2022-12-29T10:09:19;9.13;;;6.40;;
15673;SDS011;7937;48.090;16.212;2022-12-29T10:19:33;11.47;;;7.07;;
15673;SDS011;7937;48.090;16.212;2022-12-29T10:23:03;10.57;;;6.77;;
15673;SDS011;7937;48.090;16.212;2022-12-29T10:26:22;11.73;;;7.63;;
15673;SDS011;7937;48.090;16.212;2022-12-29T10:29:32;12.27;;;8.63;;
15673;SDS011;7937;48.090;16.212;2022-12-29T10:32:39;11.43;;;8.77;;
15673;SDS011;7937;48.090;16.212;2022-12-29T10:35:47;12.97;;;8.50;;
15673;SDS011;7937;48.090;16.212;2022-12-29T10:42:04;16.13;;;10.87;;
15673;SDS011;7937;48.090;16.212;2022-12-29T10:45:10;14.83;;;10.27;;
15673;SDS011;7937;48.090;16.212;2022-12-29T10:48:24;15.40;;;11.00;;
15673;SDS011;7937;48.090;16.212;2022-12-29T10:51:33;15.90;;;11.33;;
15673;SDS011;7937;48.090;16.212;2022-12-29T10:54:43;13.30;;;9.90;;
15673;SDS011;7937;48.090;16.212;2022-12-29T10:57:51;16.03;;;11.17;;
15673;SDS011;7937;48.090;16.212;2022-12-29T11:00:53;14.60;;;11.77;;
15673;SDS011;7937;48.090;16.212;2022-12-29T11:04:02;15.40;;;11.37;;
15673;SDS011;7937;48.090;16.212;2022-12-29T11:07:19;15.60;;;11.57;;
15673;SDS011;7937;48.090;16.212;2022-12-29T11:10:35;14.27;;;11.37;;
15673;SDS011;7937;48.090;16.212;2022-12-29T11:13:48;16.40;;;11.80;;
15673;SDS011;7937;48.090;16.212;2022-12-29T11:16:59;16.40;;;12.57;;
15673;SDS011;7937;48.090;16.212;2022-12-29T11:23:43;16.57;;;12.20;;
15673;SDS011;7937;48.090;16.212;2022-12-29T11:27:17;17.50;;;12.43;;
15673;SDS011;7937;48.090;16.212;2022-12-29T11:30:25;18.23;;;13.33;;
15673;SDS011;7937;48.090;16.212;2022-12-29T11:33:30;17.13;;;12.70;;
15673;SDS011;7937;48.090;16.212;2022-12-29T11:36:33;18.93;;;13.10;;
15673;SDS011;7937;48.090;16.212;2022-12-29T11:42:47;16.90;;;12.43;;
15673;SDS011;7937;48.090;16.212;2022-12-29T11:45:53;20.17;;;13.83;;
15673;SDS011;7937;48.090;16.212;2022-12-29T11:48:55;15.27;;;11.97;;
15673;SDS011;7937;48.090;16.212;2022-12-29T11:52:01;18.27;;;13.40;;
15673;SDS011;7937;48.090;16.212;2022-12-29T11:55:04;18.47;;;13.27;;
15673;SDS011;7937;48.090;16.212;2022-12-29T11:58:11;16.07;;;11.67;;
15673;SDS011;7937;48.090;16.212;2022-12-29T12:01:34;17.30;;;13.03;;
15673;SDS011;7937;48.090;16.212;2022-12-29T12:04:40;18.63;;;13.40;;
15673;SDS011;7937;48.090;16.212;2022-12-29T12:07:44;19.47;;;14.07;;
15673;SDS011;7937;48.090;16.212;2022-12-29T12:10:57;18.37;;;13.43;;
15673;SDS011;7937;48.090;16.212;2022-12-29T12:14:19;19.03;;;13.43;;
15673;SDS011;7937;48.090;16.212;2022-12-29T12:18:09;16.97;;;13.10;;
15673;SDS011;7937;48.090;16.212;2022-12-29T12:24:23;18.90;;;13.67;;
15673;SDS011;7937;48.090;16.212;2022-12-29T12:27:36;17.50;;;13.30;;
15673;SDS011;7937;48.090;16.212;2022-12-29T12:30:46;18.83;;;13.27;;
15673;SDS011;7937;48.090;16.212;2022-12-29T12:33:57;19.00;;;14.20;;
15673;SDS011;7937;48.090;16.212;2022-12-29T12:43:49;20.00;;;14.30;;
15673;SDS011;7937;48.090;16.212;2022-12-29T12:50:32;20.80;;;13.23;;
15673;SDS011;7937;48.090;16.212;2022-12-29T13:00:28;17.23;;;12.27;;
15673;SDS011;7937;48.090;16.212;2022-12-29T13:07:04;16.50;;;12.40;;
15673;SDS011;7937;48.090;16.212;2022-12-29T13:10:54;15.17;;;11.63;;
15673;SDS011;7937;48.090;16.212;2022-12-29T13:20:39;15.30;;;11.57;;
15673;SDS011;7937;48.090;16.212;2022-12-29T13:23:54;14.17;;;10.97;;
15673;SDS011;7937;48.090;16.212;2022-12-29T13:30:17;17.20;;;12.67;;
15673;SDS011;7937;48.090;16.212;2022-12-29T13:36:45;17.77;;;12.63;;
15673;SDS011;7937;48.090;16.212;2022-12-29T13:39:57;17.33;;;13.47;;
15673;SDS011;7937;48.090;16.212;2022-12-29T13:43:03;19.13;;;13.47;;
15673;SDS011;7937;48.090;16.212;2022-12-29T13:46:08;16.57;;;12.73;;
15673;SDS011;7937;48.090;16.212;2022-12-29T13:49:17;20.93;;;14.97;;
15673;SDS011;7937;48.090;16.212;2022-12-29T13:52:24;16.50;;;12.27;;
15673;SDS011;7937;48.090;16.212;2022-12-29T14:06:02;14.23;;;10.50;;
15673;SDS011;7937;48.090;16.212;2022-12-29T14:09:34;14.13;;;10.60;;
15673;SDS011;7937;48.090;16.212;2022-12-29T14:12:48;18.83;;;12.17;;
15673;SDS011;7937;48.090;16.212;2022-12-29T14:15:52;14.40;;;10.43;;
15673;SDS011;7937;48.090;16.212;2022-12-29T14:18:57;13.47;;;10.17;;
15673;SDS011;7937;48.090;16.212;2022-12-29T14:22:07;15.83;;;10.67;;
15673;SDS011;7937;48.090;16.212;2022-12-29T14:28:55;12.63;;;9.37;;
15673;SDS011;7937;48.090;16.212;2022-12-29T14:35:41;15.50;;;11.50;;
15673;SDS011;7937;48.090;16.212;2022-12-29T14:38:45;16.20;;;11.43;;
15673;SDS011;7937;48.090;16.212;2022-12-29T14:41:48;14.23;;;9.93;;
15673;SDS011;7937;48.090;16.212;2022-12-29T14:45:06;15.50;;;10.70;;
15673;SDS011;7937;48.090;16.212;2022-12-29T14:48:30;17.53;;;11.77;;
15673;SDS011;7937;48.090;16.212;2022-12-29T14:51:39;15.73;;;10.83;;
15673;SDS011;7937;48.090;16.212;2022-12-29T14:54:42;16.40;;;10.80;;
15673;SDS011;7937;48.090;16.212;2022-12-29T14:57:48;13.30;;;10.07;;
15673;SDS011;7937;48.090;16.212;2022-12-29T15:00:53;12.97;;;9.20;;
15673;SDS011;7937;48.090;16.212;2022-12-29T15:04:00;16.00;;;10.17;;
15673;SDS011;7937;48.090;16.212;2022-12-29T15:07:08;13.53;;;9.50;;
15673;SDS011;7937;48.090;16.212;2022-12-29T15:10:13;12.00;;;9.23;;
15673;SDS011;7937;48.090;16.212;2022-12-29T15:13:23;14.87;;;10.57;;
15673;SDS011;7937;48.090;16.212;2022-12-29T15:16:34;16.27;;;10.87;;
15673;SDS011;7937;48.090;16.212;2022-12-29T15:19:38;14.37;;;10.90;;
15673;SDS011;7937;48.090;16.212;2022-12-29T15:22:44;15.17;;;10.57;;
15673;SDS011;7937;48.090;16.212;2022-12-29T15:25:56;14.47;;;9.80;;
15673;SDS011;7937;48.090;16.212;2022-12-29T15:29:04;13.40;;;10.10;;
15673;SDS011;7937;48.090;16.212;2022-12-29T15:35:34;15.70;;;11.60;;
15673;SDS011;7937;48.090;16.212;2022-12-29T15:38:37;13.60;;;9.47;;
15673;SDS011;7937;48.090;16.212;2022-12-29T15:42:00;15.97;;;11.00;;
15673;SDS011;7937;48.090;16.212;2022-12-29T15:45:10;14.73;;;9.87;;
15673;SDS011;7937;48.090;16.212;2022-12-29T15:48:18;13.87;;;10.50;;
15673;SDS011;7937;48.090;16.212;2022-12-29T15:51:25;18.97;;;12.50;;
15673;SDS011;7937;48.090;16.212;2022-12-29T15:54:32;17.40;;;9.93;;
15673;SDS011;7937;48.090;16.212;2022-12-29T15:57:41;17.17;;;11.70;;
15673;SDS011;7937;48.090;16.212;2022-12-29T16:00:48;12.37;;;9.63;;
15673;SDS011;7937;48.090;16.212;2022-12-29T16:03:54;15.83;;;10.63;;
15673;SDS011;7937;48.090;16.212;2022-12-29T16:07:44;15.73;;;10.17;;
15673;SDS011;7937;48.090;16.212;2022-12-29T16:10:38;17.87;;;11.20;;
15673;SDS011;7937;48.090;16.212;2022-12-29T16:13:44;16.13;;;10.20;;
15673;SDS011;7937;48.090;16.212;2022-12-29T16:16:46;16.27;;;10.83;;
15673;SDS011;7937;48.090;16.212;2022-12-29T16:19:52;16.67;;;10.83;;
15673;SDS011;7937;48.090;16.212;2022-12-29T16:22:58;16.33;;;10.90;;
15673;SDS011;7937;48.090;16.212;2022-12-29T16:26:01;16.33;;;10.07;;
15673;SDS011;7937;48.090;16.212;2022-12-29T16:29:06;17.73;;;11.23;;
15673;SDS011;7937;48.090;16.212;2022-12-29T16:35:38;16.07;;;11.30;;
15673;SDS011;7937;48.090;16.212;2022-12-29T16:38:46;15.20;;;10.07;;
15673;SDS011;7937;48.090;16.212;2022-12-29T16:41:49;15.87;;;11.10;;
15673;SDS011;7937;48.090;16.212;2022-12-29T16:44:52;16.47;;;11.33;;
15673;SDS011;7937;48.090;16.212;2022-12-29T16:51:16;17.53;;;11.53;;
15673;SDS011;7937;48.090;16.212;2022-12-29T16:54:24;18.53;;;12.50;;
15673;SDS011;7937;48.090;16.212;2022-12-29T16:57:33;18.07;;;11.47;;
15673;SDS011;7937;48.090;16.212;2022-12-29T17:00:40;15.37;;;10.97;;
15673;SDS011;7937;48.090;16.212;2022-12-29T17:03:56;22.93;;;12.83;;
15673;SDS011;7937;48.090;16.212;2022-12-29T17:07:02;19.67;;;13.23;;
15673;SDS011;7937;48.090;16.212;2022-12-29T17:10:04;20.00;;;13.20;;
15673;SDS011;7937;48.090;16.212;2022-12-29T17:13:06;20.90;;;13.10;;
15673;SDS011;7937;48.090;16.212;2022-12-29T17:16:10;17.70;;;12.00;;
15673;SDS011;7937;48.090;16.212;2022-12-29T17:19:17;20.43;;;13.93;;
15673;SDS011;7937;48.090;16.212;2022-12-29T17:22:22;17.73;;;10.87;;
15673;SDS011;7937;48.090;16.212;2022-12-29T17:25:27;18.53;;;13.13;;
15673;SDS011;7937;48.090;16.212;2022-12-29T17:28:33;19.47;;;13.07;;
15673;SDS011;7937;48.090;16.212;2022-12-29T17:31:35;19.33;;;12.97;;
15673;SDS011;7937;48.090;16.212;2022-12-29T17:34:38;20.37;;;12.30;;
15673;SDS011;7937;48.090;16.212;2022-12-29T17:37:42;23.73;;;15.47;;
15673;SDS011;7937;48.090;16.212;2022-12-29T17:40:44;20.77;;;13.80;;
15673;SDS011;7937;48.090;16.212;2022-12-29T17:43:47;22.83;;;13.50;;
15673;SDS011;7937;48.090;16.212;2022-12-29T17:46:49;19.80;;;12.93;;
15673;SDS011;7937;48.090;16.212;2022-12-29T17:49:51;17.97;;;12.10;;
15673;SDS011;7937;48.090;16.212;2022-12-29T17:52:57;17.77;;;11.90;;
15673;SDS011;7937;48.090;16.212;2022-12-29T17:56:03;19.63;;;12.43;;
15673;SDS011;7937;48.090;16.212;2022-12-29T17:59:09;15.63;;;11.17;;
15673;SDS011;7937;48.090;16.212;2022-12-29T18:02:25;15.43;;;10.20;;
15673;SDS011;7937;48.090;16.212;2022-12-29T18:05:31;15.70;;;10.10;;
15673;SDS011;7937;48.090;16.212;2022-12-29T18:08:33;18.40;;;11.37;;
15673;SDS011;7937;48.090;16.212;2022-12-29T18:11:37;16.20;;;10.33;;
15673;SDS011;7937;48.090;16.212;2022-12-29T18:14:41;17.30;;;11.47;;
15673;SDS011;7937;48.090;16.212;2022-12-29T18:17:43;16.77;;;11.43;;
15673;SDS011;7937;48.090;16.212;2022-12-29T18:20:46;18.63;;;11.10;;
15673;SDS011;7937;48.090;16.212;2022-12-29T18:23:50;17.60;;;11.33;;
15673;SDS011;7937;48.090;16.212;2022-12-29T18:26:52;19.23;;;12.73;;
15673;SDS011;7937;48.090;16.212;2022-12-29T18:29:55;18.77;;;12.63;;
15673;SDS011;7937;48.090;16.212;2022-12-29T18:32:57;18.67;;;12.10;;
15673;SDS011;7937;48.090;16.212;2022-12-29T18:36:00;18.07;;;12.80;;
15673;SDS011;7937;48.090;16.212;2022-12-29T18:39:04;19.90;;;12.40;;
15673;SDS011;7937;48.090;16.212;2022-12-29T18:42:06;17.37;;;12.63;;
15673;SDS011;7937;48.090;16.212;2022-12-29T18:45:13;18.70;;;13.17;;
15673;SDS011;7937;48.090;16.212;2022-12-29T18:48:20;17.23;;;11.30;;
15673;SDS011;7937;48.090;16.212;2022-12-29T18:51:23;18.47;;;11.90;;
15673;SDS011;7937;48.090;16.212;2022-12-29T18:54:30;19.70;;;12.63;;
15673;SDS011;7937;48.090;16.212;2022-12-29T18:57:33;19.43;;;12.83;;
15673;SDS011;7937;48.090;16.212;2022-12-29T19:00:35;19.33;;;12.73;;
15673;SDS011;7937;48.090;16.212;2022-12-29T19:03:39;21.20;;;15.30;;
15673;SDS011;7937;48.090;16.212;2022-12-29T19:06:41;24.27;;;14.17;;
15673;SDS011;7937;48.090;16.212;2022-12-29T19:09:45;25.80;;;16.13;;
15673;SDS011;7937;48.090;16.212;2022-12-29T19:12:47;20.13;;;14.20;;
15673;SDS011;7937;48.090;16.212;2022-12-29T19:15:51;19.47;;;13.17;;
15673;SDS011;7937;48.090;16.212;2022-12-29T19:18:53;20.77;;;14.60;;
15673;SDS011;7937;48.090;16.212;2022-12-29T19:22:09;20.07;;;13.40;;
15673;SDS011;7937;48.090;16.212;2022-12-29T19:25:12;18.77;;;12.93;;
15673;SDS011;7937;48.090;16.212;2022-12-29T19:28:24;17.90;;;12.70;;
15673;SDS011;7937;48.090;16.212;2022-12-29T19:31:28;18.70;;;13.20;;
15673;SDS011;7937;48.090;16.212;2022-12-29T19:34:31;16.73;;;11.63;;
15673;SDS011;7937;48.090;16.212;2022-12-29T19:37:33;19.47;;;12.63;;
15673;SDS011;7937;48.090;16.212;2022-12-29T19:40:39;19.80;;;12.73;;
15673;SDS011;7937;48.090;16.212;2022-12-29T19:43:44;16.47;;;11.60;;
15673;SDS011;7937;48.090;16.212;2022-12-29T19:46:47;19.53;;;12.60;;
15673;SDS011;7937;48.090;16.212;2022-12-29T19:49:49;18.40;;;12.40;;
15673;SDS011;7937;48.090;16.212;2022-12-29T19:52:51;18.33;;;13.17;;
15673;SDS011;7937;48.090;16.212;2022-12-29T19:56:06;20.63;;;12.43;;
15673;SDS011;7937;48.090;16.212;2022-12-29T19:59:09;18.37;;;11.30;;
15673;SDS011;7937;48.090;16.212;2022-12-29T20:05:23;16.10;;;10.37;;
15673;SDS011;7937;48.090;16.212;2022-12-29T20:08:25;14.33;;;9.83;;
15673;SDS011;7937;48.090;16.212;2022-12-29T20:11:27;13.73;;;9.70;;
15673;SDS011;7937;48.090;16.212;2022-12-29T20:14:29;13.00;;;9.80;;
15673;SDS011;7937;48.090;16.212;2022-12-29T20:17:31;12.37;;;8.40;;
15673;SDS011;7937;48.090;16.212;2022-12-29T20:20:53;17.93;;;11.90;;
15673;SDS011;7937;48.090;16.212;2022-12-29T20:24:21;15.60;;;11.13;;
15673;SDS011;7937;48.090;16.212;2022-12-29T20:27:23;15.87;;;10.87;;
15673;SDS011;7937;48.090;16.212;2022-12-29T20:30:25;14.47;;;10.60;;
15673;SDS011;7937;48.090;16.212;2022-12-29T20:33:29;16.17;;;10.33;;
15673;SDS011;7937;48.090;16.212;2022-12-29T20:36:33;17.00;;;11.83;;
15673;SDS011;7937;48.090;16.212;2022-12-29T20:39:38;18.77;;;11.73;;
15673;SDS011;7937;48.090;16.212;2022-12-29T20:42:41;17.67;;;11.67;;
15673;SDS011;7937;48.090;16.212;2022-12-29T20:45:44;16.67;;;10.73;;